createdAt,value
2023-04-05T00:00:34.758Z,996.23
2023-04-05T00:01:34.662Z,996.23
2023-04-05T00:02:34.606Z,996.22
2023-04-05T00:05:34.384Z,996.19
2023-04-05T00:06:34.223Z,996.20
2023-04-05T00:07:34.137Z,996.20
2023-04-05T00:08:34.043Z,996.17
2023-04-05T00:09:33.961Z,996.15
2023-04-05T00:10:33.868Z,996.18
2023-04-05T00:11:33.786Z,996.13
2023-04-05T00:12:33.708Z,996.12
2023-04-05T00:13:33.608Z,996.10
2023-04-05T00:14:33.519Z,996.06
2023-04-05T00:15:33.455Z,996.08
2023-04-05T00:16:33.633Z,996.09
2023-04-05T00:17:33.335Z,996.05
2023-04-05T00:18:33.171Z,996.00
2023-04-05T00:19:33.084Z,995.93
2023-04-05T00:20:32.998Z,996.03
2023-04-05T00:21:32.909Z,995.97
2023-04-05T00:22:32.818Z,995.99
2023-04-05T00:23:32.934Z,996.00
2023-04-05T00:24:32.645Z,996.01
2023-04-05T00:25:32.657Z,995.98
2023-04-05T00:26:32.467Z,996.01
2023-04-05T00:27:32.384Z,995.99
2023-04-05T00:28:32.299Z,995.97
2023-04-05T00:29:32.561Z,995.99
2023-04-05T00:30:32.119Z,995.90
2023-04-05T00:31:32.075Z,995.95
2023-04-05T00:32:32.009Z,995.93
2023-04-05T00:33:31.860Z,995.91
2023-04-05T00:34:31.770Z,995.92
2023-04-05T00:35:31.714Z,995.91
2023-04-05T00:36:31.594Z,995.90
2023-04-05T00:37:31.508Z,995.91
2023-04-05T00:38:31.418Z,995.86
2023-04-05T00:39:31.331Z,995.82
2023-04-05T00:40:31.244Z,995.86
2023-04-05T00:41:31.156Z,995.87
2023-04-05T00:42:31.067Z,995.81
2023-04-05T00:43:30.983Z,995.89
2023-04-05T00:44:30.898Z,995.85
2023-04-05T00:45:30.803Z,995.86
2023-04-05T00:46:30.747Z,995.86
2023-04-05T00:47:30.662Z,995.84
2023-04-05T00:48:30.540Z,995.85
2023-04-05T00:49:30.456Z,995.88
2023-04-05T00:50:30.367Z,995.88
2023-04-05T00:51:30.278Z,995.87
2023-04-05T00:52:30.191Z,995.93
2023-04-05T00:53:30.505Z,995.86
2023-04-05T00:54:30.022Z,995.88
2023-04-05T00:55:29.926Z,995.86
2023-04-05T00:56:29.838Z,995.84
2023-04-05T00:57:29.749Z,995.82
2023-04-05T00:58:29.663Z,995.80
2023-04-05T00:59:29.754Z,995.78
2023-04-05T01:00:29.486Z,995.79
2023-04-05T01:01:29.478Z,995.75
2023-04-05T01:02:29.336Z,995.78
2023-04-05T01:03:29.240Z,995.79
2023-04-05T01:04:29.163Z,995.75
2023-04-05T01:05:29.049Z,995.75
2023-04-05T01:06:28.951Z,995.78
2023-04-05T01:07:28.868Z,995.75
2023-04-05T01:08:28.781Z,995.74
2023-04-05T01:09:28.691Z,995.71
2023-04-05T01:10:28.601Z,995.71
2023-04-05T01:11:28.515Z,995.71
2023-04-05T01:12:28.429Z,995.73
2023-04-05T01:13:28.352Z,995.70
2023-04-05T01:14:28.403Z,995.67
2023-04-05T01:15:28.160Z,995.71
2023-04-05T01:16:28.071Z,995.67
2023-04-05T01:17:28.000Z,995.69
2023-04-05T01:18:27.899Z,995.66
2023-04-05T01:19:27.843Z,995.63
2023-04-05T01:20:27.768Z,995.64
2023-04-05T01:21:27.660Z,995.60
2023-04-05T01:22:27.592Z,995.60
2023-04-05T01:23:27.467Z,995.60
2023-04-05T01:24:27.366Z,995.59
2023-04-05T01:25:27.293Z,995.59
2023-04-05T01:26:27.189Z,995.56
2023-04-05T01:27:27.104Z,995.53
2023-04-05T01:28:27.011Z,995.52
2023-04-05T01:29:27.177Z,995.53
2023-04-05T01:30:26.844Z,995.51
2023-04-05T01:31:26.987Z,995.55
2023-04-05T01:32:26.725Z,995.55
2023-04-05T01:33:26.575Z,995.52
2023-04-05T01:34:26.483Z,995.54
2023-04-05T01:35:26.423Z,995.50
2023-04-05T01:36:26.312Z,995.52
2023-04-05T01:37:26.221Z,995.51
2023-04-05T01:38:26.137Z,995.51
2023-04-05T01:39:26.044Z,995.46
2023-04-05T01:40:25.972Z,995.44
2023-04-05T01:41:25.868Z,995.45
2023-04-05T01:42:25.780Z,995.45
2023-04-05T01:43:25.690Z,995.46
2023-04-05T01:44:25.603Z,995.43
2023-04-05T01:45:25.515Z,995.42
2023-04-05T01:46:25.435Z,995.43
2023-04-05T01:47:25.407Z,995.46
2023-04-05T01:48:25.253Z,995.47
2023-04-05T01:49:25.158Z,995.48
2023-04-05T01:50:25.076Z,995.48
2023-04-05T01:51:25.005Z,995.53
2023-04-05T01:52:24.897Z,995.47
2023-04-05T01:53:24.841Z,995.46
2023-04-05T01:54:24.719Z,995.46
2023-04-05T01:55:24.642Z,995.46
2023-04-05T01:56:24.549Z,995.42
2023-04-05T01:57:24.467Z,995.41
2023-04-05T01:58:24.364Z,995.41
2023-04-05T01:59:24.330Z,995.38
2023-04-05T02:00:24.213Z,995.39
2023-04-05T02:01:24.220Z,995.43
2023-04-05T02:02:24.038Z,995.42
2023-04-05T02:03:24.033Z,995.38
2023-04-05T02:04:23.837Z,995.39
2023-04-05T02:05:23.787Z,995.39
2023-04-05T02:06:23.692Z,995.40
2023-04-05T02:07:23.588Z,995.36
2023-04-05T02:08:23.479Z,995.37
2023-04-05T02:09:23.626Z,995.37
2023-04-05T02:10:23.537Z,995.36
2023-04-05T02:11:23.223Z,995.38
2023-04-05T02:12:23.164Z,995.43
2023-04-05T02:13:23.073Z,995.41
2023-04-05T02:14:22.980Z,995.44
2023-04-05T02:15:22.859Z,995.48
2023-04-05T02:16:22.805Z,995.42
2023-04-05T02:17:22.727Z,995.45
2023-04-05T02:18:22.742Z,995.42
2023-04-05T02:19:22.542Z,995.40
2023-04-05T02:20:22.453Z,995.40
2023-04-05T02:21:22.328Z,995.40
2023-04-05T02:23:22.370Z,995.42
2023-04-05T02:24:22.093Z,995.40
2023-04-05T02:25:21.970Z,995.37
2023-04-05T02:26:21.918Z,995.42
2023-04-05T02:28:21.737Z,995.40
2023-04-05T02:29:21.614Z,995.40
2023-04-05T02:30:21.558Z,995.37
2023-04-05T02:31:21.693Z,995.39
2023-04-05T02:32:21.487Z,995.34
2023-04-05T02:33:21.300Z,995.39
2023-04-05T02:34:21.172Z,995.33
2023-04-05T02:35:21.145Z,995.30
2023-04-05T02:37:20.942Z,995.27
2023-04-05T02:38:20.858Z,995.29
2023-04-05T02:39:20.750Z,995.30
2023-04-05T02:41:20.549Z,995.29
2023-04-05T02:42:20.495Z,995.30
2023-04-05T02:43:20.407Z,995.34
2023-04-05T02:44:20.314Z,995.32
2023-04-05T02:45:20.237Z,995.39
2023-04-05T02:46:20.271Z,995.39
2023-04-05T02:47:20.561Z,995.38
2023-04-05T02:48:19.962Z,995.39
2023-04-05T02:50:19.988Z,995.38
2023-04-05T02:51:19.702Z,995.43
2023-04-05T02:52:19.663Z,995.44
2023-04-05T02:53:19.517Z,995.47
2023-04-05T02:54:19.388Z,995.40
2023-04-05T02:55:19.330Z,995.41
2023-04-05T03:06:18.316Z,995.39
2023-04-05T03:07:18.384Z,995.39
2023-04-05T03:09:25.623Z,995.37
2023-04-05T03:10:25.570Z,995.37
2023-04-05T03:11:25.443Z,995.36
2023-04-05T03:12:25.357Z,995.35
2023-04-05T03:13:25.294Z,995.35
2023-04-05T03:14:25.180Z,995.34
2023-04-05T03:15:25.098Z,995.37
2023-04-05T03:16:25.045Z,995.37
2023-04-05T03:17:25.037Z,995.37
2023-04-05T03:18:24.822Z,995.34
2023-04-05T03:19:24.736Z,995.32
2023-04-05T03:21:24.643Z,995.32
2023-04-05T03:22:24.465Z,995.32
2023-04-05T03:23:24.374Z,995.28
2023-04-05T03:24:24.284Z,995.30
2023-04-05T03:25:24.196Z,995.32
2023-04-05T03:26:24.128Z,995.29
2023-04-05T03:27:24.018Z,995.29
2023-04-05T03:28:23.932Z,995.31
2023-04-05T03:29:23.841Z,995.32
2023-04-05T03:30:23.749Z,995.30
2023-04-05T03:33:23.483Z,995.30
2023-04-05T03:34:23.392Z,995.31
2023-04-05T03:35:23.360Z,995.33
2023-04-05T03:36:23.262Z,995.33
2023-04-05T03:37:23.129Z,995.32
2023-04-05T03:38:23.031Z,995.30
2023-04-05T03:39:22.944Z,995.27
2023-04-05T03:40:22.861Z,995.28
2023-04-05T03:41:22.764Z,995.26
2023-04-05T03:42:22.699Z,995.30
2023-04-05T03:43:22.592Z,995.29
2023-04-05T03:44:22.494Z,995.29
2023-04-05T03:45:24.525Z,995.27
2023-04-05T03:46:22.376Z,995.29
2023-04-05T03:47:22.233Z,995.23
2023-04-05T03:49:22.051Z,995.18
2023-04-05T03:50:21.955Z,995.18
2023-04-05T03:52:21.779Z,995.16
2023-04-05T03:53:21.687Z,995.15
2023-04-05T03:54:21.599Z,995.16
2023-04-05T03:55:21.507Z,995.13
2023-04-05T03:56:21.422Z,995.14
2023-04-05T03:57:21.488Z,995.10
2023-04-05T03:58:21.265Z,995.11
2023-04-05T03:59:21.355Z,995.12
2023-04-05T04:00:21.066Z,995.11
2023-04-05T04:01:20.997Z,995.11
2023-04-05T04:02:20.969Z,995.08
2023-04-05T04:03:21.046Z,995.04
2023-04-05T04:04:20.701Z,995.05
2023-04-05T04:05:20.776Z,995.05
2023-04-05T04:06:20.587Z,995.12
2023-04-05T04:07:20.430Z,995.12
2023-04-05T04:08:20.343Z,995.06
2023-04-05T04:09:20.301Z,995.12
2023-04-05T04:10:20.163Z,995.07
2023-04-05T04:11:20.071Z,995.10
2023-04-05T04:12:19.980Z,995.10
2023-04-05T04:13:19.939Z,995.07
2023-04-05T04:14:19.842Z,995.07
2023-04-05T04:15:19.711Z,995.08
2023-04-05T04:16:19.641Z,995.11
2023-04-05T04:17:19.534Z,995.10
2023-04-05T04:18:19.456Z,995.08
2023-04-05T04:19:20.380Z,995.16
2023-04-05T04:21:07.027Z,995.10
2023-04-05T04:22:06.648Z,995.09
2023-04-05T04:23:06.556Z,995.12
2023-04-05T04:24:06.921Z,995.12
2023-04-05T04:25:06.382Z,995.15
2023-04-05T04:26:06.297Z,995.11
2023-04-05T04:27:06.197Z,995.12
2023-04-05T04:28:06.113Z,995.09
2023-04-05T04:29:06.238Z,995.11
2023-04-05T04:30:05.951Z,995.05
2023-04-05T04:31:05.841Z,995.02
2023-04-05T04:32:05.867Z,995.06
2023-04-05T04:33:08.231Z,995.01
2023-04-05T04:34:05.579Z,994.99
2023-04-05T04:35:05.517Z,994.96
2023-04-05T04:36:05.417Z,995.03
2023-04-05T04:37:05.302Z,995.01
2023-04-05T04:38:05.223Z,994.98
2023-04-05T04:39:05.122Z,994.99
2023-04-05T04:40:05.039Z,994.99
2023-04-05T04:41:04.955Z,994.97
2023-04-05T04:42:04.863Z,994.94
2023-04-05T04:43:04.763Z,994.94
2023-04-05T04:44:04.671Z,994.91
2023-04-05T04:45:04.583Z,994.96
2023-04-05T04:46:04.561Z,994.96
2023-04-05T04:47:04.404Z,994.96
2023-04-05T04:48:04.334Z,994.98
2023-04-05T04:49:04.223Z,994.97
2023-04-05T04:50:04.132Z,994.98
2023-04-05T04:51:04.054Z,995.00
2023-04-05T04:52:03.954Z,995.04
2023-04-05T04:53:03.870Z,995.01
2023-04-05T04:54:03.773Z,995.01
2023-04-05T04:55:03.682Z,995.05
2023-04-05T04:56:03.597Z,995.03
2023-04-05T04:57:03.506Z,995.05
2023-04-05T04:58:03.420Z,995.07
2023-04-05T04:59:03.357Z,995.02
2023-04-05T05:00:03.388Z,995.04
2023-04-05T05:01:03.274Z,995.03
2023-04-05T05:02:03.078Z,995.04
2023-04-05T05:03:02.990Z,995.05
2023-04-05T05:04:02.924Z,995.06
2023-04-05T05:05:02.811Z,995.05
2023-04-05T05:06:02.716Z,995.04
2023-04-05T05:07:02.631Z,995.05
2023-04-05T05:08:02.533Z,995.04
2023-04-05T05:09:02.439Z,995.00
2023-04-05T05:10:02.347Z,995.00
2023-04-05T05:11:02.288Z,995.00
2023-04-05T05:12:02.167Z,995.00
2023-04-05T05:13:02.080Z,995.02
2023-04-05T05:14:01.985Z,995.02
2023-04-05T05:15:01.891Z,995.05
2023-04-05T05:16:01.809Z,995.06
2023-04-05T05:17:01.765Z,995.06
2023-04-05T05:18:02.600Z,995.02
2023-04-05T05:19:01.537Z,995.02
2023-04-05T05:20:01.446Z,995.00
2023-04-05T05:21:01.355Z,995.05
2023-04-05T05:22:01.270Z,995.09
2023-04-05T05:23:01.986Z,995.08
2023-04-05T05:24:01.085Z,995.10
2023-04-05T05:25:01.045Z,995.12
2023-04-05T05:26:00.905Z,995.13
2023-04-05T05:27:01.172Z,995.13
2023-04-05T05:28:00.730Z,995.15
2023-04-05T05:29:00.637Z,995.14
2023-04-05T05:30:00.605Z,995.14
2023-04-05T05:31:00.485Z,995.12
2023-04-05T05:32:00.371Z,995.12
2023-04-05T05:33:00.293Z,995.13
2023-04-05T05:34:00.208Z,995.11
2023-04-05T05:35:00.110Z,995.09
2023-04-05T05:36:00.058Z,995.08
2023-04-05T05:36:59.919Z,995.06
2023-04-05T05:37:59.835Z,995.09
2023-04-05T05:38:59.736Z,995.07
2023-04-05T05:39:59.661Z,995.07
2023-04-05T05:40:59.631Z,995.02
2023-04-05T05:41:59.471Z,995.09
2023-04-05T05:42:59.375Z,995.07
2023-04-05T05:43:59.294Z,995.09
2023-04-05T05:44:59.198Z,995.12
2023-04-05T05:45:59.135Z,995.13
2023-04-05T05:46:59.020Z,995.12
2023-04-05T05:47:59.031Z,995.15
2023-04-05T05:48:58.846Z,995.10
2023-04-05T05:49:58.774Z,995.12
2023-04-05T05:50:58.657Z,995.12
2023-04-05T05:51:58.578Z,995.11
2023-04-05T05:53:00.266Z,995.16
2023-04-05T05:53:58.391Z,995.12
2023-04-05T05:54:58.300Z,995.18
2023-04-05T05:55:58.265Z,995.18
2023-04-05T05:56:58.131Z,995.21
2023-04-05T05:57:58.037Z,995.18
2023-04-05T05:58:58.272Z,995.20
2023-04-05T05:59:57.854Z,995.21
2023-04-05T06:00:57.770Z,995.22
2023-04-05T06:01:57.677Z,995.24
2023-04-05T06:02:57.657Z,995.23
2023-04-05T06:03:57.552Z,995.23
2023-04-05T06:04:57.453Z,995.21
2023-04-05T06:05:57.337Z,995.25
2023-04-05T06:06:57.226Z,995.25
2023-04-05T06:07:57.140Z,995.28
2023-04-05T06:08:57.052Z,995.27
2023-04-05T06:09:56.964Z,995.26
2023-04-05T06:10:56.889Z,995.22
2023-04-05T06:11:57.433Z,995.24
2023-04-05T06:12:56.696Z,995.22
2023-04-05T06:13:56.612Z,995.20
2023-04-05T06:14:56.513Z,995.20
2023-04-05T06:15:56.459Z,995.22
2023-04-05T06:16:56.339Z,995.21
2023-04-05T06:17:56.255Z,995.25
2023-04-05T06:18:58.779Z,995.25
2023-04-05T06:19:56.079Z,995.23
2023-04-05T06:20:55.977Z,995.24
2023-04-05T06:21:55.953Z,995.26
2023-04-05T06:22:55.800Z,995.22
2023-04-05T06:23:55.710Z,995.24
2023-04-05T06:24:55.624Z,995.27
2023-04-05T06:25:55.544Z,995.25
2023-04-05T06:26:55.447Z,995.22
2023-04-05T06:27:55.359Z,995.29
2023-04-05T06:28:55.266Z,995.27
2023-04-05T06:29:55.183Z,995.33
2023-04-05T06:30:55.085Z,995.26
2023-04-05T06:31:55.036Z,995.30
2023-04-05T06:32:54.998Z,995.27
2023-04-05T06:33:54.827Z,995.30
2023-04-05T06:34:54.741Z,995.26
2023-04-05T06:35:54.665Z,995.27
2023-04-05T06:36:54.559Z,995.25
2023-04-05T06:37:54.495Z,995.25
2023-04-05T06:38:54.384Z,995.22
2023-04-05T06:39:54.292Z,995.27
2023-04-05T06:40:54.443Z,995.24
2023-04-05T06:41:54.365Z,995.24
2023-04-05T06:42:54.022Z,995.24
2023-04-05T06:43:53.946Z,995.22
2023-04-05T06:44:53.848Z,995.24
2023-04-05T06:45:53.957Z,995.23
2023-04-05T06:46:53.674Z,995.22
2023-04-05T06:47:53.627Z,995.20
2023-04-05T06:48:53.591Z,995.22
2023-04-05T06:49:53.691Z,995.17
2023-04-05T06:50:53.318Z,995.21
2023-04-05T06:51:53.236Z,995.23
2023-04-05T06:52:53.144Z,995.25
2023-04-05T06:53:53.118Z,995.26
2023-04-05T06:54:52.973Z,995.29
2023-04-05T06:55:52.893Z,995.25
2023-04-05T06:56:52.798Z,995.25
2023-04-05T06:57:52.712Z,995.27
2023-04-05T06:58:52.634Z,995.24
2023-04-05T06:59:52.532Z,995.25
2023-04-05T07:00:52.470Z,995.23
2023-04-05T07:01:52.545Z,995.24
2023-04-05T07:02:52.303Z,995.21
2023-04-05T07:03:52.190Z,995.24
2023-04-05T07:04:52.113Z,995.22
2023-04-05T07:05:52.014Z,995.24
2023-04-05T07:06:51.925Z,995.25
2023-04-05T07:07:51.833Z,995.24
2023-04-05T07:08:51.746Z,995.26
2023-04-05T07:09:51.691Z,995.24
2023-04-05T07:10:51.572Z,995.23
2023-04-05T07:11:51.490Z,995.26
2023-04-05T07:12:51.408Z,995.25
2023-04-05T07:13:51.472Z,995.23
2023-04-05T07:14:51.248Z,995.22
2023-04-05T07:15:51.185Z,995.25
2023-04-05T07:16:51.107Z,995.25
2023-04-05T07:17:51.028Z,995.28
2023-04-05T07:18:50.877Z,995.28
2023-04-05T09:00:50.736Z,995.09
2023-04-05T09:01:51.235Z,995.07
2023-04-05T09:02:50.687Z,995.05
2023-04-05T09:03:50.492Z,995.04
2023-04-05T09:04:50.392Z,995.06
2023-04-05T09:05:50.291Z,995.08
2023-04-05T09:06:50.210Z,995.11
2023-04-05T09:07:50.327Z,995.10
2023-04-05T09:08:50.039Z,995.09
2023-04-05T09:09:49.956Z,995.09
2023-04-05T09:10:49.871Z,995.10
2023-04-05T09:11:49.793Z,995.09
2023-04-05T09:12:51.344Z,995.08
2023-04-05T09:13:49.621Z,995.10
2023-04-05T09:14:49.593Z,995.09
2023-04-05T09:15:49.462Z,995.06
2023-04-05T09:16:49.491Z,995.07
2023-04-05T09:17:49.332Z,995.08
2023-04-05T09:18:49.225Z,995.11
2023-04-05T11:17:17.481Z,994.61
2023-04-05T11:18:17.380Z,994.60
2023-04-05T11:19:17.302Z,994.60
2023-04-05T11:20:17.222Z,994.64
2023-04-05T11:21:17.492Z,994.62
2023-04-05T11:22:17.065Z,994.62
2023-04-05T11:23:17.037Z,994.61
2023-04-05T11:24:16.916Z,994.63
2023-04-05T11:25:16.835Z,994.73
2023-04-05T11:28:42.390Z,994.65
2023-04-05T11:30:29.800Z,994.58
2023-04-05T11:31:29.766Z,994.61
2023-04-05T11:32:29.707Z,994.59
2023-04-05T11:33:29.572Z,994.59
2023-04-05T11:34:29.494Z,994.63
2023-04-05T11:35:29.428Z,994.64
2023-04-05T11:36:29.343Z,994.68
2023-04-05T11:37:29.267Z,994.62
2023-04-05T11:38:29.189Z,994.61
2023-04-05T11:39:29.114Z,994.66
2023-04-05T11:40:29.046Z,994.70
2023-04-05T11:41:28.962Z,994.69
2023-04-05T11:42:28.900Z,994.67
2023-04-05T11:43:28.811Z,994.72
2023-04-05T11:44:28.739Z,994.73
2023-04-05T11:45:31.181Z,994.67
2023-04-05T11:46:28.624Z,994.81
2023-04-05T11:47:28.531Z,994.78
2023-04-05T11:48:28.459Z,994.67
2023-04-05T11:49:28.365Z,994.65
2023-04-05T11:50:28.295Z,994.67
2023-04-05T11:51:28.220Z,994.69
2023-04-05T11:52:28.151Z,994.68
2023-04-05T11:53:28.074Z,994.64
2023-04-05T11:54:28.001Z,994.68
2023-04-05T11:55:27.937Z,994.61
2023-04-05T11:56:27.861Z,994.64
2023-04-05T11:57:27.784Z,994.71
2023-04-05T11:59:28.112Z,994.68
2023-04-05T12:01:27.536Z,994.73
2023-04-05T12:02:27.523Z,994.76
2023-04-05T12:03:27.427Z,994.73
2023-04-05T12:04:27.320Z,994.69
2023-04-05T12:05:27.214Z,994.76
2023-04-05T12:09:42.842Z,994.72
2023-04-05T12:10:42.774Z,994.78
2023-04-05T12:11:42.702Z,994.71
2023-04-05T12:12:42.657Z,994.71
2023-04-05T12:13:42.563Z,994.73
2023-04-05T12:14:42.499Z,994.71
2023-04-05T12:15:42.809Z,994.76
2023-04-05T12:16:42.433Z,994.77
2023-04-05T12:17:42.301Z,994.77
2023-04-05T12:18:42.229Z,994.75
2023-04-05T12:19:42.170Z,994.81
2023-04-05T12:20:42.085Z,994.79
2023-04-05T12:21:42.726Z,994.82
2023-04-05T12:27:53.538Z,994.77
2023-04-05T12:29:53.799Z,994.75
2023-04-05T12:30:53.337Z,994.74
2023-04-05T12:35:18.929Z,994.76
2023-04-05T12:36:18.906Z,994.78
2023-04-05T12:37:18.773Z,994.76
2023-04-05T12:38:18.740Z,994.76
2023-04-05T12:39:21.100Z,994.75
2023-04-05T12:40:18.572Z,994.71
2023-04-05T12:41:18.852Z,994.71
2023-04-05T12:42:18.436Z,994.69
2023-04-05T12:43:18.367Z,994.71
2023-04-05T12:44:18.300Z,994.75
2023-04-05T12:45:18.233Z,994.75
2023-04-05T12:47:20.926Z,994.66
2023-04-05T12:48:18.034Z,994.66
2023-04-05T12:49:17.963Z,994.66
2023-04-05T12:50:17.942Z,994.66
2023-04-05T12:51:17.859Z,994.64
2023-04-05T12:52:17.765Z,994.66
2023-04-05T12:53:17.699Z,994.65
2023-04-05T12:54:17.631Z,994.60
2023-04-05T12:55:17.565Z,994.63
2023-04-05T12:56:17.746Z,994.66
2023-04-05T12:57:17.581Z,994.67
2023-04-05T12:58:17.370Z,994.67
2023-04-05T12:59:17.391Z,994.64
2023-04-05T13:00:17.243Z,994.61
2023-04-05T13:01:17.201Z,994.60
2023-04-05T13:02:17.181Z,994.59
2023-04-05T13:03:17.222Z,994.59
2023-04-05T13:04:17.220Z,994.58
2023-04-05T13:05:16.909Z,994.57
2023-04-05T13:06:16.994Z,994.52
2023-04-05T13:07:16.787Z,994.52
2023-04-05T13:08:16.727Z,994.55
2023-04-05T13:09:16.635Z,994.48
2023-04-05T13:10:16.570Z,994.51
2023-04-05T13:11:19.122Z,994.46
2023-04-05T13:12:16.738Z,994.44
2023-04-05T13:13:16.378Z,994.46
2023-04-05T13:14:16.306Z,994.47
2023-04-05T13:15:16.235Z,994.45
2023-04-05T13:16:16.197Z,994.45
2023-04-05T13:17:16.539Z,994.37
2023-04-05T13:18:16.051Z,994.37
2023-04-05T13:19:15.968Z,994.35
2023-04-05T13:20:15.911Z,994.36
2023-04-05T13:21:15.836Z,994.35
2023-04-05T13:22:15.770Z,994.39
2023-04-05T13:23:15.816Z,994.38
2023-04-05T13:25:15.788Z,994.37
2023-04-05T13:26:15.510Z,994.32
2023-04-05T13:27:15.443Z,994.34
2023-04-05T13:28:15.374Z,994.30
2023-04-05T13:29:15.305Z,994.34
2023-04-05T13:30:15.237Z,994.27
2023-04-05T13:31:17.842Z,994.26
2023-04-05T13:32:15.108Z,994.27
2023-04-05T13:33:15.041Z,994.25
2023-04-05T13:34:14.975Z,994.25
2023-04-05T13:35:14.910Z,994.22
2023-04-05T13:36:14.885Z,994.18
2023-04-05T13:37:14.775Z,994.11
2023-04-05T13:38:14.744Z,994.16
2023-04-05T13:39:14.714Z,994.10
2023-04-05T13:40:14.576Z,994.10
2023-04-05T13:41:14.513Z,994.10
2023-04-05T13:42:14.451Z,994.08
2023-04-05T13:43:14.375Z,994.07
2023-04-05T13:44:14.338Z,994.09
2023-04-05T13:45:14.251Z,994.08
2023-04-05T13:46:14.205Z,994.05
2023-04-05T13:47:14.109Z,994.04
2023-04-05T13:48:14.062Z,994.04
2023-04-05T13:49:13.985Z,994.02
2023-04-05T13:50:13.917Z,993.99
2023-04-05T13:51:13.847Z,993.97
2023-04-05T13:52:13.790Z,994.01
2023-04-05T13:53:14.724Z,993.93
2023-04-05T13:54:13.650Z,993.96
2023-04-05T13:55:13.614Z,993.95
2023-04-05T13:56:13.515Z,993.94
2023-04-05T13:57:13.445Z,993.95
2023-04-05T13:58:13.380Z,993.92
2023-04-05T13:59:13.372Z,993.87
2023-04-05T14:00:13.404Z,993.88
2023-04-05T14:01:13.194Z,993.81
2023-04-05T14:02:13.115Z,993.77
2023-04-05T14:03:13.123Z,993.79
2023-04-05T14:04:12.986Z,993.74
2023-04-05T14:05:12.913Z,993.77
2023-04-05T14:06:12.851Z,993.76
2023-04-05T14:07:12.788Z,993.73
2023-04-05T14:08:12.722Z,993.71
2023-04-05T14:09:12.702Z,993.73
2023-04-05T14:10:12.590Z,993.70
2023-04-05T14:11:12.551Z,993.69
2023-04-05T14:12:14.026Z,993.69
2023-04-05T14:14:15.502Z,993.65
2023-04-05T14:15:12.254Z,993.63
2023-04-05T14:16:12.350Z,993.58
2023-04-05T14:17:12.118Z,993.57
2023-04-05T14:18:12.113Z,993.57
2023-04-05T14:19:11.985Z,993.55
2023-04-05T14:20:11.916Z,993.54
2023-04-05T14:21:11.852Z,993.52
2023-04-05T14:22:11.787Z,993.50
2023-04-05T14:23:11.728Z,993.48
2023-04-05T14:24:11.658Z,993.40
2023-04-05T14:25:11.586Z,993.40
2023-04-05T14:26:11.530Z,993.34
2023-04-05T14:27:11.488Z,993.42
2023-04-05T14:28:11.388Z,993.43
2023-04-05T14:29:11.321Z,993.38
2023-04-05T14:30:11.384Z,993.40
2023-04-05T14:31:11.221Z,993.42
2023-04-05T14:32:11.211Z,993.36
2023-04-05T14:33:12.091Z,993.35
2023-04-05T14:34:10.992Z,993.33
2023-04-05T14:35:10.937Z,993.36
2023-04-05T14:36:10.863Z,993.29
2023-04-05T14:37:10.795Z,993.30
2023-04-05T14:38:11.743Z,993.27
2023-04-05T14:39:10.660Z,993.27
2023-04-05T14:40:10.594Z,993.26
2023-04-05T14:41:10.529Z,993.24
2023-04-05T14:42:10.462Z,993.29
2023-04-05T14:43:10.422Z,993.24
2023-04-05T14:44:10.341Z,993.24
2023-04-05T14:45:57.871Z,993.24
2023-04-05T14:46:57.698Z,993.22
2023-04-05T14:47:57.691Z,993.18
2023-04-05T14:48:58.575Z,993.21
2023-04-05T14:49:57.494Z,993.19
2023-04-05T14:50:57.433Z,993.16
2023-04-05T14:51:57.459Z,993.19
2023-04-05T14:52:57.295Z,993.16
2023-04-05T14:53:57.231Z,993.19
2023-04-05T14:54:57.164Z,993.16
2023-04-05T14:55:57.092Z,993.12
2023-04-05T14:56:57.125Z,993.13
2023-04-05T14:57:57.016Z,993.12
2023-04-05T14:58:56.951Z,993.10
2023-04-05T14:59:56.830Z,993.07
2023-04-05T15:00:56.775Z,993.06
2023-04-05T15:01:56.688Z,993.09
2023-04-05T15:02:56.671Z,993.04
2023-04-05T15:03:56.626Z,993.07
2023-04-05T15:04:56.687Z,993.03
2023-04-05T15:05:56.417Z,993.00
2023-04-05T15:07:38.840Z,992.97
2023-04-05T15:08:38.777Z,993.01
2023-04-05T15:09:38.707Z,992.99
2023-04-05T15:10:38.827Z,992.98
2023-04-05T15:12:21.058Z,992.91
2023-04-05T15:13:20.991Z,992.93
2023-04-05T15:14:31.095Z,992.94
2023-04-05T15:15:20.856Z,992.94
2023-04-05T15:16:20.845Z,992.95
2023-04-05T15:17:20.716Z,992.95
2023-04-05T15:18:20.644Z,992.97
2023-04-05T15:19:20.576Z,992.96
2023-04-05T15:20:20.515Z,992.99
2023-04-05T15:21:20.452Z,992.99
2023-04-05T15:22:20.368Z,992.99
2023-04-05T15:23:20.301Z,993.00
2023-04-05T15:24:20.230Z,992.98
2023-04-05T15:25:20.409Z,992.97
2023-04-05T15:26:20.090Z,992.93
2023-04-05T15:27:20.026Z,992.91
2023-04-05T15:28:19.953Z,992.92
2023-04-05T15:29:19.883Z,992.91
2023-04-05T15:30:20.290Z,992.92
2023-04-05T15:31:19.755Z,992.89
2023-04-05T15:32:19.676Z,992.90
2023-04-05T15:33:19.607Z,992.84
2023-04-05T15:34:19.540Z,992.81
2023-04-05T15:35:19.468Z,992.84
2023-04-05T15:36:19.399Z,992.85
2023-04-05T15:37:19.333Z,992.83
2023-04-05T15:38:19.264Z,992.86
2023-04-05T15:40:19.144Z,992.86
2023-04-05T15:41:19.053Z,992.85
2023-04-05T15:42:18.983Z,992.83
2023-04-05T15:43:18.914Z,992.86
2023-04-05T15:44:18.844Z,992.84
2023-04-05T15:45:18.776Z,992.84
2023-04-05T15:46:18.885Z,992.81
2023-04-05T15:47:18.644Z,992.82
2023-04-05T15:48:18.604Z,992.81
2023-04-05T15:49:18.500Z,992.78
2023-04-05T15:50:18.576Z,992.79
2023-04-05T15:51:18.654Z,992.77
2023-04-05T15:52:18.296Z,992.76
2023-04-05T15:53:18.216Z,992.79
2023-04-05T15:54:18.155Z,992.76
2023-04-05T15:55:18.080Z,992.74
2023-04-05T15:56:18.019Z,992.74
2023-04-05T15:57:17.940Z,992.76
2023-04-05T15:58:18.079Z,992.73
2023-04-05T15:59:17.842Z,992.77
2023-04-05T16:00:17.732Z,992.73
2023-04-05T16:01:17.718Z,992.77
2023-04-05T16:02:18.014Z,992.76
2023-04-05T16:03:17.625Z,992.75
2023-04-05T16:04:17.466Z,992.74
2023-04-05T16:05:17.380Z,992.76
2023-04-05T16:06:17.316Z,992.70
2023-04-05T16:07:17.538Z,992.69
2023-04-05T16:08:17.272Z,992.68
2023-04-05T16:09:17.107Z,992.67
2023-04-05T16:10:17.030Z,992.66
2023-04-05T16:11:16.958Z,992.69
2023-04-05T16:15:01.803Z,992.69
2023-04-05T16:16:01.770Z,992.70
2023-04-05T16:17:01.704Z,992.70
2023-04-05T16:18:01.632Z,992.68
2023-04-05T16:20:01.498Z,992.74
2023-04-05T16:21:01.413Z,992.68
2023-04-05T16:22:01.343Z,992.68
2023-04-05T16:23:01.230Z,992.71
2023-04-05T16:24:01.226Z,992.67
2023-04-05T16:25:01.133Z,992.66
2023-04-05T16:26:01.274Z,992.60
2023-04-05T16:27:01.034Z,992.51
2023-04-05T16:28:00.910Z,992.49
2023-04-05T16:29:01.105Z,992.56
2023-04-05T16:30:00.731Z,992.51
2023-04-05T16:31:00.663Z,992.53
2023-04-05T16:32:00.733Z,992.51
2023-04-05T16:33:00.566Z,992.46
2023-04-05T16:34:00.476Z,992.49
2023-04-05T16:35:00.368Z,992.43
2023-04-05T16:36:00.578Z,992.45
2023-04-05T16:37:00.409Z,992.43
2023-04-05T16:38:00.201Z,992.43
2023-04-05T16:39:00.199Z,992.42
2023-04-05T16:39:59.996Z,992.41
2023-04-05T16:40:59.925Z,992.41
2023-04-05T16:41:59.845Z,992.36
2023-04-05T16:42:59.768Z,992.37
2023-04-05T16:43:59.699Z,992.35
2023-04-05T16:44:59.618Z,992.34
2023-04-05T16:45:59.847Z,992.36
2023-04-05T16:46:59.466Z,992.40
2023-04-05T16:47:59.453Z,992.37
2023-04-05T16:48:59.411Z,992.35
2023-04-05T16:49:59.266Z,992.32
2023-04-05T16:50:59.156Z,992.41
2023-04-05T16:51:59.076Z,992.39
2023-04-05T16:52:59.044Z,992.38
2023-04-05T16:53:58.967Z,992.41
2023-04-05T16:55:58.771Z,992.39
2023-04-05T16:56:58.942Z,992.39
2023-04-05T16:57:58.649Z,992.42
2023-04-05T16:58:58.805Z,992.41